createdAt,value
2022-09-30T00:01:15.025Z,9.16
2022-09-30T00:03:41.706Z,9.15
2022-09-30T00:06:09.203Z,9.15
2022-09-30T00:08:37.913Z,9.14
2022-09-30T00:11:18.630Z,9.15
2022-09-30T00:13:47.771Z,9.12
2022-09-30T00:16:16.662Z,9.12
2022-09-30T00:18:44.345Z,9.10
2022-09-30T00:21:12.849Z,9.08
2022-09-30T00:23:40.398Z,9.07
2022-09-30T00:26:16.295Z,9.07
2022-09-30T00:28:45.174Z,9.08
2022-09-30T00:31:16.948Z,9.06
2022-09-30T00:33:44.066Z,9.04
2022-09-30T00:36:11.454Z,9.04
2022-09-30T00:38:38.095Z,9.02
2022-09-30T00:41:05.471Z,9.02
2022-09-30T00:43:43.689Z,9.01
2022-09-30T00:46:22.092Z,9.00
2022-09-30T00:48:54.120Z,8.97
2022-09-30T00:51:29.550Z,8.96
2022-09-30T00:54:00.688Z,8.96
2022-09-30T00:56:33.002Z,8.93
2022-09-30T00:59:24.146Z,8.93
2022-09-30T01:01:51.209Z,8.90
2022-09-30T01:04:22.478Z,8.89
2022-09-30T01:06:50.364Z,8.87
2022-09-30T01:09:18.176Z,8.86
2022-09-30T01:11:46.114Z,8.79
2022-09-30T01:14:12.778Z,8.83
2022-09-30T01:16:44.090Z,8.81
2022-09-30T01:19:31.263Z,8.79
2022-09-30T01:22:16.794Z,8.79
2022-09-30T01:25:08.071Z,8.77
2022-09-30T01:27:44.330Z,8.75
2022-09-30T01:30:36.919Z,8.76
2022-09-30T01:33:40.411Z,8.75
2022-09-30T01:36:27.706Z,8.72
2022-09-30T01:39:12.565Z,8.72
2022-09-30T01:41:54.622Z,8.71
2022-09-30T01:48:36.086Z,8.66
2022-09-30T01:51:11.677Z,8.65
2022-09-30T01:53:50.916Z,8.65
2022-09-30T01:56:34.414Z,8.62
2022-09-30T01:59:07.483Z,8.61
2022-09-30T02:01:44.262Z,8.61
2022-09-30T02:04:20.209Z,8.61
2022-09-30T02:06:52.295Z,8.60
2022-09-30T02:09:27.952Z,8.59
2022-09-30T02:11:58.201Z,8.57
2022-09-30T02:14:49.132Z,8.57
2022-09-30T02:17:21.872Z,8.54
2022-09-30T02:19:57.502Z,8.54
2022-09-30T02:22:46.648Z,8.52
2022-09-30T02:25:20.454Z,8.51
2022-09-30T02:27:50.830Z,8.48
2022-09-30T02:30:18.578Z,8.45
2022-09-30T02:32:55.949Z,8.46
2022-09-30T02:35:29.140Z,8.46
2022-09-30T02:38:03.634Z,8.46
2022-09-30T02:40:42.618Z,8.45
2022-09-30T02:43:09.909Z,8.44
2022-09-30T02:46:08.958Z,8.44
2022-09-30T02:49:04.834Z,8.44
2022-09-30T02:51:45.252Z,8.42
2022-09-30T02:54:21.179Z,8.42
2022-09-30T02:57:01.668Z,8.41
2022-09-30T02:59:28.473Z,8.40
2022-09-30T03:01:55.193Z,8.39
2022-09-30T03:04:25.569Z,8.41
2022-09-30T03:06:52.321Z,8.40
2022-09-30T03:09:19.139Z,8.39
2022-09-30T03:11:47.807Z,8.39
2022-09-30T03:14:24.302Z,8.39
2022-09-30T03:16:56.963Z,8.38
2022-09-30T03:19:45.369Z,8.38
2022-09-30T03:22:37.959Z,8.36
2022-09-30T03:25:19.883Z,8.34
2022-09-30T03:28:00.382Z,8.33
2022-09-30T03:30:28.411Z,8.32
2022-09-30T03:33:01.033Z,8.31
2022-09-30T03:35:41.613Z,8.32
2022-09-30T03:38:42.016Z,8.31
2022-09-30T03:41:22.829Z,8.31
2022-09-30T03:44:02.308Z,8.29
2022-09-30T03:46:37.007Z,8.24
2022-09-30T03:49:08.794Z,8.28
2022-09-30T03:51:37.993Z,8.29
2022-09-30T03:54:14.422Z,8.30
2022-09-30T03:56:44.569Z,8.29
2022-09-30T03:59:17.379Z,8.29
2022-09-30T04:01:44.081Z,8.29
2022-09-30T04:04:13.777Z,8.29
2022-09-30T04:06:40.483Z,8.30
2022-09-30T04:09:07.225Z,8.30
2022-09-30T04:11:34.020Z,8.31
2022-09-30T04:14:01.655Z,8.30
2022-09-30T04:16:32.611Z,8.30
2022-09-30T04:18:59.542Z,8.29
2022-09-30T04:21:28.840Z,8.29
2022-09-30T04:23:56.092Z,8.29
2022-09-30T04:26:23.163Z,8.29
2022-09-30T04:28:50.476Z,8.30
2022-09-30T04:31:17.841Z,8.30
2022-09-30T04:33:45.316Z,8.28
2022-09-30T04:36:11.945Z,8.28
2022-09-30T04:38:39.346Z,8.30
2022-09-30T04:41:07.013Z,8.29
2022-09-30T04:43:37.065Z,8.30
2022-09-30T04:46:03.902Z,8.31
2022-09-30T04:48:31.477Z,8.30
2022-09-30T04:51:00.197Z,8.30
2022-09-30T04:53:27.177Z,8.30
2022-09-30T04:55:59.968Z,8.31
2022-09-30T04:58:27.358Z,8.31
2022-09-30T05:01:04.535Z,8.31
2022-09-30T05:03:31.366Z,8.32
2022-09-30T05:05:58.021Z,8.32
2022-09-30T05:08:24.969Z,8.30
2022-09-30T05:10:59.491Z,8.33
2022-09-30T05:13:30.502Z,8.33
2022-09-30T05:15:57.319Z,8.35
2022-09-30T05:18:26.128Z,8.34
2022-09-30T05:20:54.138Z,8.36
2022-09-30T05:23:21.426Z,8.36
2022-09-30T05:25:48.172Z,8.36
2022-09-30T05:28:18.311Z,8.37
2022-09-30T05:30:45.530Z,8.37
2022-09-30T05:33:14.165Z,8.38
2022-09-30T05:35:41.790Z,8.38
2022-09-30T05:38:09.274Z,8.39
2022-09-30T05:40:39.602Z,8.40
2022-09-30T05:43:07.099Z,8.38
2022-09-30T05:45:34.432Z,8.40
2022-09-30T05:48:01.386Z,8.38
2022-09-30T05:50:28.222Z,8.41
2022-09-30T05:52:54.850Z,8.41
2022-09-30T05:55:22.693Z,8.43
2022-09-30T05:57:51.303Z,8.44
2022-09-30T06:00:18.714Z,8.43
2022-09-30T06:02:45.518Z,8.45
2022-09-30T06:05:13.023Z,8.45
2022-09-30T06:07:40.228Z,8.45
2022-09-30T06:10:11.171Z,8.45
2022-09-30T06:12:38.847Z,8.46
2022-09-30T06:15:06.642Z,8.47
2022-09-30T06:17:34.762Z,8.46
2022-09-30T06:20:02.295Z,8.46
2022-09-30T06:22:28.953Z,8.43
2022-09-30T06:24:55.616Z,8.46
2022-09-30T06:27:22.338Z,8.48
2022-09-30T06:29:49.466Z,8.49
2022-09-30T06:32:17.434Z,8.48
2022-09-30T06:34:44.821Z,8.47
2022-09-30T06:37:16.082Z,8.50
2022-09-30T06:39:42.846Z,8.51
2022-09-30T06:42:10.156Z,8.51
2022-09-30T06:44:49.636Z,8.51
2022-09-30T06:47:25.110Z,8.52
2022-09-30T06:49:53.143Z,8.52
2022-09-30T06:52:23.307Z,8.53
2022-09-30T06:54:51.319Z,8.53
2022-09-30T06:57:22.598Z,8.52
2022-09-30T06:59:50.388Z,8.55
2022-09-30T07:02:17.332Z,8.58
2022-09-30T07:04:44.169Z,8.59
2022-09-30T07:07:10.996Z,8.60
2022-09-30T07:09:38.036Z,8.62
2022-09-30T07:12:06.554Z,8.64
2022-09-30T07:14:33.987Z,8.64
2022-09-30T07:17:04.307Z,8.63
2022-09-30T07:19:31.852Z,8.67
2022-09-30T07:22:18.609Z,8.68
2022-09-30T07:24:45.288Z,8.68
2022-09-30T07:27:13.699Z,8.71
2022-09-30T07:30:07.156Z,8.73
2022-09-30T07:32:28.144Z,8.76
2022-09-30T07:34:54.884Z,8.78
2022-09-30T07:37:21.796Z,8.80
2022-09-30T07:39:48.731Z,8.82
2022-09-30T07:42:21.651Z,8.84
2022-09-30T07:44:52.351Z,8.86
2022-09-30T07:47:20.485Z,8.89
2022-09-30T07:49:47.502Z,8.91
2022-09-30T07:52:15.084Z,8.87
2022-09-30T07:54:48.028Z,8.94
2022-09-30T07:57:17.363Z,8.92
2022-09-30T07:59:44.352Z,8.98
2022-09-30T08:02:19.191Z,9.00
2022-09-30T08:04:46.396Z,9.03
2022-09-30T08:07:15.280Z,9.07
2022-09-30T08:09:42.240Z,9.10
2022-09-30T08:12:09.456Z,9.13
2022-09-30T08:14:36.115Z,9.15
2022-09-30T08:17:02.915Z,9.18
2022-09-30T08:19:31.157Z,9.22
2022-09-30T08:21:58.691Z,9.24
2022-09-30T08:24:26.991Z,9.20
2022-09-30T08:26:54.263Z,9.27
2022-09-30T08:29:42.557Z,9.31
2022-09-30T08:32:07.969Z,9.34
2022-09-30T08:34:35.839Z,9.37
2022-09-30T08:37:08.686Z,9.40
2022-09-30T08:39:39.568Z,9.47
2022-09-30T08:42:37.687Z,9.40
2022-09-30T08:45:30.586Z,9.53
2022-09-30T08:48:10.015Z,9.58
2022-09-30T08:50:57.603Z,9.61
2022-09-30T08:53:31.545Z,9.66
2022-09-30T08:56:02.643Z,9.53
2022-09-30T08:58:37.370Z,9.48
2022-09-30T09:01:19.993Z,9.60
2022-09-30T09:03:47.309Z,9.69
2022-09-30T09:06:53.205Z,9.74
2022-09-30T09:09:34.525Z,9.71
2022-09-30T09:12:16.457Z,9.61
2022-09-30T09:14:58.799Z,9.63
2022-09-30T09:18:10.996Z,12.23
2022-09-30T09:20:45.193Z,11.27
2022-09-30T09:23:13.818Z,10.74
2022-09-30T09:25:40.765Z,10.57
2022-09-30T09:28:26.271Z,10.45
2022-09-30T09:30:58.061Z,10.39
2022-09-30T09:33:29.919Z,10.29
2022-09-30T09:36:11.613Z,10.36
2022-09-30T09:39:13.288Z,10.35
2022-09-30T09:42:17.451Z,10.33
2022-09-30T09:44:53.253Z,10.39
2022-09-30T09:47:20.346Z,10.41
2022-09-30T09:49:56.806Z,10.44
2022-09-30T09:52:46.122Z,10.45
2022-09-30T09:55:14.794Z,10.46
2022-09-30T09:57:41.679Z,10.47
2022-09-30T10:00:31.365Z,10.48
2022-09-30T10:03:08.587Z,10.49
2022-09-30T10:05:42.525Z,10.47
2022-09-30T10:08:23.798Z,10.53
2022-09-30T10:10:54.201Z,10.56
2022-09-30T10:13:24.644Z,10.56
2022-09-30T10:15:56.542Z,10.56
2022-09-30T10:18:34.967Z,10.53
2022-09-30T10:21:08.981Z,10.55
2022-09-30T10:23:40.232Z,10.54
2022-09-30T10:26:16.093Z,10.62
2022-09-30T10:28:57.371Z,10.62
2022-09-30T10:31:32.078Z,10.66
2022-09-30T10:34:19.922Z,10.63
2022-09-30T10:36:47.489Z,10.68
2022-09-30T10:39:25.333Z,10.75
2022-09-30T10:42:00.612Z,10.74
2022-09-30T10:44:28.296Z,10.70
2022-09-30T10:47:00.863Z,10.75
2022-09-30T10:49:39.055Z,10.65
2022-09-30T10:52:06.768Z,10.72
2022-09-30T10:54:50.684Z,10.75
2022-09-30T10:57:26.224Z,10.87
2022-09-30T11:00:15.406Z,10.94
2022-09-30T11:02:51.913Z,10.71
2022-09-30T11:05:22.754Z,10.78
2022-09-30T11:07:55.466Z,10.93
2022-09-30T11:10:34.838Z,10.87
2022-09-30T11:13:19.293Z,10.99
2022-09-30T11:16:13.608Z,11.03
2022-09-30T11:18:49.318Z,11.07
2022-09-30T11:21:18.602Z,11.12
2022-09-30T11:23:51.143Z,11.19
2022-09-30T11:26:26.918Z,11.21
2022-09-30T11:29:11.894Z,11.83
2022-09-30T11:31:53.916Z,11.56
2022-09-30T11:34:35.333Z,11.51
2022-09-30T11:37:13.977Z,11.49
2022-09-30T11:39:59.512Z,11.51
2022-09-30T11:42:49.372Z,11.51
2022-09-30T11:45:30.666Z,11.54
2022-09-30T11:48:41.924Z,11.55
2022-09-30T11:51:23.926Z,11.57
2022-09-30T11:54:23.963Z,11.67
2022-09-30T11:57:32.379Z,11.70
2022-09-30T12:00:19.319Z,11.76
2022-09-30T12:02:53.357Z,11.74
2022-09-30T12:05:25.766Z,11.82
2022-09-30T12:07:55.065Z,11.87
2022-09-30T12:10:29.525Z,11.89
2022-09-30T12:13:10.460Z,11.92
2022-09-30T12:15:39.599Z,11.92
2022-09-30T12:18:13.643Z,11.89
2022-09-30T12:21:10.551Z,11.89
2022-09-30T12:24:15.257Z,11.87
2022-09-30T12:26:42.307Z,11.85
2022-09-30T12:29:37.021Z,11.95
2022-09-30T12:32:13.031Z,11.90
2022-09-30T12:35:01.549Z,11.97
2022-09-30T12:37:37.099Z,11.96
2022-09-30T12:40:25.012Z,12.04
2022-09-30T12:43:25.755Z,12.06
2022-09-30T12:46:20.272Z,12.11
2022-09-30T12:48:55.734Z,12.15
2022-09-30T12:51:33.944Z,12.15
2022-09-30T12:54:22.696Z,12.20
2022-09-30T12:56:54.976Z,12.20
2022-09-30T12:59:28.513Z,12.21
2022-09-30T13:01:56.582Z,12.29
2022-09-30T13:04:32.041Z,12.33
2022-09-30T13:06:58.681Z,12.33
2022-09-30T13:09:31.295Z,12.23
2022-09-30T13:11:58.070Z,12.12
2022-09-30T13:14:45.108Z,12.18
2022-09-30T13:17:11.903Z,12.14
2022-09-30T13:19:41.113Z,12.18
2022-09-30T13:22:29.867Z,12.23
2022-09-30T13:25:05.595Z,12.30
2022-09-30T13:27:44.591Z,12.35
2022-09-30T13:30:17.099Z,12.38
2022-09-30T13:32:48.712Z,12.41
2022-09-30T13:35:31.900Z,12.44
2022-09-30T13:38:13.881Z,12.47
2022-09-30T13:41:02.979Z,12.49
2022-09-30T13:43:42.723Z,12.47
2022-09-30T13:46:35.729Z,12.51
2022-09-30T13:49:14.660Z,12.52
2022-09-30T13:51:42.549Z,12.54
2022-09-30T13:54:24.708Z,12.58
2022-09-30T13:56:51.662Z,12.54
2022-09-30T13:59:28.890Z,12.61
2022-09-30T14:02:06.007Z,12.63
2022-09-30T14:04:51.506Z,12.64
2022-09-30T14:07:42.901Z,12.65
2022-09-30T14:10:12.503Z,12.65
2022-09-30T14:13:06.006Z,12.67
2022-09-30T14:15:57.339Z,12.68
2022-09-30T14:19:02.882Z,12.67
2022-09-30T14:21:37.245Z,12.67
2022-09-30T14:24:17.313Z,12.69
2022-09-30T14:27:21.202Z,12.73
2022-09-30T14:30:06.151Z,12.76
2022-09-30T14:32:43.359Z,12.66
2022-09-30T14:38:05.596Z,13.01
2022-09-30T14:40:34.567Z,12.88
2022-09-30T14:43:04.990Z,12.83
2022-09-30T14:45:38.192Z,12.85
2022-09-30T14:48:11.841Z,12.83
2022-09-30T14:50:56.177Z,12.83
2022-09-30T14:53:34.669Z,12.83
2022-09-30T14:56:02.664Z,12.84
2022-09-30T14:58:31.694Z,12.84
2022-09-30T15:01:11.523Z,12.82
2022-09-30T15:03:43.722Z,12.79
2022-09-30T15:06:20.337Z,12.80
2022-09-30T15:08:48.878Z,12.80
2022-09-30T15:11:21.254Z,12.79
2022-09-30T15:13:51.842Z,12.80
2022-09-30T15:16:27.257Z,12.80
2022-09-30T15:18:54.609Z,12.81
2022-09-30T15:21:23.778Z,12.83
2022-09-30T15:23:52.814Z,12.81
2022-09-30T15:26:24.996Z,12.82
2022-09-30T15:28:51.864Z,12.80
2022-09-30T15:31:28.030Z,12.80
2022-09-30T15:34:11.977Z,12.79
2022-09-30T15:36:39.482Z,12.77
2022-09-30T15:39:17.349Z,12.77
2022-09-30T15:41:44.113Z,12.69
2022-09-30T15:44:20.226Z,12.71
2022-09-30T15:47:08.503Z,12.71
2022-09-30T15:49:38.154Z,12.72
2022-09-30T15:52:28.209Z,12.72
2022-09-30T15:54:56.624Z,12.70
2022-09-30T15:57:52.633Z,12.70
2022-09-30T16:00:34.580Z,12.69
2022-09-30T16:03:29.243Z,12.68
2022-09-30T16:06:06.371Z,12.68
2022-09-30T16:08:41.756Z,12.67
2022-09-30T16:11:08.762Z,12.66
2022-09-30T16:13:42.405Z,12.64
2022-09-30T16:16:21.354Z,12.65
2022-09-30T16:18:49.919Z,12.63
2022-09-30T16:21:43.611Z,12.62
2022-09-30T16:24:29.024Z,12.59
2022-09-30T16:27:03.051Z,12.58
2022-09-30T16:29:30.063Z,12.55
2022-09-30T16:31:57.443Z,12.56
2022-09-30T16:34:26.520Z,12.55
2022-09-30T16:36:54.799Z,12.54
2022-09-30T16:39:21.511Z,12.47
2022-09-30T16:41:48.123Z,12.46
2022-09-30T16:44:14.864Z,12.46
2022-09-30T16:46:41.525Z,12.45
2022-09-30T16:49:14.863Z,12.47
2022-09-30T16:51:42.344Z,12.46
2022-09-30T16:54:09.963Z,12.45
2022-09-30T16:56:36.753Z,12.38
2022-09-30T16:59:04.549Z,12.40
2022-09-30T17:01:31.168Z,12.40
2022-09-30T17:03:58.396Z,12.39
2022-09-30T17:06:28.402Z,12.39
2022-09-30T17:08:55.549Z,12.39
2022-09-30T17:11:28.289Z,12.37
2022-09-30T17:13:55.363Z,12.36
2022-09-30T17:16:23.254Z,12.31
2022-09-30T17:18:50.529Z,12.34
2022-09-30T17:21:18.420Z,12.33
2022-09-30T17:23:45.117Z,12.32
2022-09-30T17:26:11.900Z,12.32
2022-09-30T17:28:38.592Z,12.30
2022-09-30T17:31:05.594Z,12.28
2022-09-30T17:33:33.493Z,12.29
2022-09-30T17:36:09.756Z,12.28
2022-09-30T17:38:36.801Z,12.25
2022-09-30T17:41:22.467Z,12.23
2022-09-30T17:43:49.457Z,12.17
2022-09-30T17:46:18.917Z,12.22
2022-09-30T17:48:46.763Z,12.20
2022-09-30T17:51:16.317Z,12.19
2022-09-30T17:53:44.138Z,12.18
2022-09-30T17:56:22.704Z,12.17
2022-09-30T17:58:51.056Z,12.15
2022-09-30T18:01:20.534Z,12.14
2022-09-30T18:03:47.510Z,12.13
2022-09-30T18:06:16.995Z,12.11
2022-09-30T18:08:43.713Z,12.10
2022-09-30T18:11:11.648Z,12.08
2022-09-30T18:13:38.274Z,12.07
2022-09-30T18:16:06.917Z,12.07
2022-09-30T18:18:36.819Z,12.06
2022-09-30T18:21:03.550Z,12.04
2022-09-30T18:23:30.360Z,12.05
2022-09-30T18:25:58.075Z,12.05
2022-09-30T18:28:25.163Z,12.04
2022-09-30T18:30:51.857Z,12.02
2022-09-30T18:33:21.557Z,11.97
2022-09-30T18:35:49.106Z,11.98
2022-09-30T18:38:15.761Z,11.96
2022-09-30T18:40:43.776Z,11.96
2022-09-30T18:43:14.137Z,11.96
2022-09-30T18:45:43.444Z,11.93
2022-09-30T18:48:11.108Z,11.92
2022-09-30T18:50:38.818Z,11.90
2022-09-30T18:53:09.737Z,11.88
2022-09-30T18:55:39.883Z,11.83
2022-09-30T18:58:06.573Z,11.84
2022-09-30T19:00:33.596Z,11.82
2022-09-30T19:03:00.499Z,11.81
2022-09-30T19:05:27.349Z,11.80
2022-09-30T19:07:54.602Z,11.78
2022-09-30T19:10:21.637Z,11.76
2022-09-30T19:12:49.727Z,11.77
2022-09-30T19:15:16.528Z,11.74
2022-09-30T19:17:44.271Z,11.75
2022-09-30T19:20:12.249Z,11.74
2022-09-30T19:22:38.893Z,11.72
2022-09-30T19:25:07.482Z,11.72
2022-09-30T19:27:37.788Z,11.70
2022-09-30T19:30:09.275Z,11.69
2022-09-30T19:32:36.097Z,11.66
2022-09-30T19:35:06.629Z,11.65
2022-09-30T19:37:33.827Z,11.64
2022-09-30T19:40:12.478Z,11.62
2022-09-30T19:42:43.074Z,11.60
2022-09-30T19:45:09.833Z,11.59
2022-09-30T19:47:36.686Z,11.59
2022-09-30T19:50:04.642Z,11.58
2022-09-30T19:52:31.283Z,11.56
2022-09-30T19:55:10.368Z,11.56
2022-09-30T19:57:42.144Z,11.53
2022-09-30T20:00:11.675Z,11.49
2022-09-30T20:02:38.425Z,11.48
2022-09-30T20:05:05.668Z,11.48
2022-09-30T20:07:32.608Z,11.48
2022-09-30T20:10:00.907Z,11.47
2022-09-30T20:12:29.310Z,11.45
2022-09-30T20:15:14.374Z,11.43
2022-09-30T20:17:41.131Z,11.42
2022-09-30T20:20:26.731Z,11.41
2022-09-30T20:22:53.434Z,11.38
2022-09-30T20:25:20.335Z,11.38
2022-09-30T20:27:52.427Z,11.37
2022-09-30T20:30:20.561Z,11.34
2022-09-30T20:32:47.230Z,11.34
2022-09-30T20:35:14.094Z,11.30
2022-09-30T20:37:42.583Z,11.30
2022-09-30T20:40:12.431Z,11.29
2022-09-30T20:42:40.161Z,11.28
2022-09-30T20:45:10.364Z,11.27
2022-09-30T20:47:38.347Z,11.27
2022-09-30T20:50:06.537Z,11.25
2022-09-30T20:52:33.158Z,11.24
2022-09-30T20:55:00.537Z,11.22
2022-09-30T20:57:31.157Z,11.22
2022-09-30T21:00:01.912Z,11.20
2022-09-30T21:02:29.141Z,11.20
2022-09-30T21:04:58.011Z,11.18
2022-09-30T21:07:26.126Z,11.17
2022-09-30T21:09:55.760Z,11.16
2022-09-30T21:12:22.662Z,11.15
2022-09-30T21:14:49.350Z,11.16
2022-09-30T21:17:16.007Z,11.15
2022-09-30T21:19:43.711Z,11.13
2022-09-30T21:22:11.263Z,11.12
2022-09-30T21:24:37.943Z,11.11
2022-09-30T21:27:06.098Z,11.11
2022-09-30T21:29:32.921Z,11.10
2022-09-30T21:32:00.052Z,11.09
2022-09-30T21:34:27.000Z,11.08
2022-09-30T21:36:53.680Z,11.06
2022-09-30T21:39:20.544Z,11.07
2022-09-30T21:41:47.671Z,11.07
2022-09-30T21:44:15.349Z,11.05
2022-09-30T21:46:47.336Z,11.05
2022-09-30T21:49:20.268Z,11.03
2022-09-30T21:51:47.268Z,11.02
2022-09-30T21:54:14.134Z,11.02
2022-09-30T21:56:43.062Z,11.01
2022-09-30T21:59:10.851Z,11.00
2022-09-30T22:01:37.698Z,10.99
2022-09-30T22:04:05.783Z,10.98
2022-09-30T22:06:32.884Z,10.97
2022-09-30T22:09:02.509Z,10.96
2022-09-30T22:11:31.232Z,10.96
2022-09-30T22:13:59.699Z,10.94
2022-09-30T22:16:29.810Z,10.94
2022-09-30T22:19:02.424Z,10.93
2022-09-30T22:21:34.210Z,10.91
2022-09-30T22:24:02.829Z,10.92
2022-09-30T22:26:31.882Z,10.90
2022-09-30T22:29:06.522Z,10.88
2022-09-30T22:31:34.019Z,10.87
2022-09-30T22:34:21.957Z,10.86
2022-09-30T22:37:07.249Z,10.86
2022-09-30T22:39:35.010Z,10.83
2022-09-30T22:42:02.240Z,10.83
2022-09-30T22:44:36.735Z,10.83
2022-09-30T22:47:04.530Z,10.81
2022-09-30T22:49:34.477Z,10.80
2022-09-30T22:52:04.868Z,10.77
2022-09-30T22:54:31.867Z,10.75
2022-09-30T22:57:01.568Z,10.78
2022-09-30T22:59:29.712Z,10.73
2022-09-30T23:01:57.459Z,10.77
2022-09-30T23:04:25.867Z,10.77
2022-09-30T23:06:55.382Z,10.76
2022-09-30T23:09:22.360Z,10.73
2022-09-30T23:11:53.512Z,10.76
2022-09-30T23:14:21.581Z,10.76
2022-09-30T23:16:48.416Z,10.75
2022-09-30T23:19:15.278Z,10.75
2022-09-30T23:21:41.899Z,10.74
2022-09-30T23:24:08.558Z,10.70
2022-09-30T23:26:35.543Z,10.74
2022-09-30T23:29:08.222Z,10.72
2022-09-30T23:31:35.303Z,10.73
2022-09-30T23:34:03.182Z,10.73
2022-09-30T23:36:35.603Z,10.73
2022-09-30T23:39:03.487Z,10.72
2022-09-30T23:41:31.692Z,10.72
2022-09-30T23:43:58.697Z,10.71
2022-09-30T23:46:25.509Z,10.71
2022-09-30T23:48:52.213Z,10.71
2022-09-30T23:51:19.826Z,10.71
2022-09-30T23:53:46.607Z,10.70
2022-09-30T23:56:16.265Z,10.70
2022-09-30T23:58:44.040Z,10.68
